< < Back
Terminal Aerodrome Forecast


Current Version              Previous Versions:   1  2  3  4  5  6  7  8  9  

Terminal Aerodrome Forecast

556
FTUS42 KTAE 221100
TAFABY
TAF
KABY 221125Z 2212/2312 00000KT P6SM SKC
     FM221500 31005KT P6SM SCT050
     FM230200 00000KT P6SM SCT250=

Latest METAR

831
SAUS70 KWBC 231300
MTRABY
METAR KABY 231253Z 23003KT 10SM CLR 26/24 A3002 RMK AO2 SLP162
T02610239


USA.gov is the U.S. government's official web portal to all federal, state and local government web resources and services.